Terminal Aerodrome Forecast
Issued by NWS

Home | Current Version | Previous Version | Text Only | Print | Product List | Glossary On
Versions: 1 2 3 4 5 6 7 8 9 10 11 12 13 14 15 16 17 18 19 20 21 22 23
000
FTUS42 KJAX 200400 AAA
TAFCRG
TAF AMD
KCRG 200401Z 2004/2024 09010KT P6SM VCSH SCT025 BKN100
      TEMPO 2004/2007 -SHRA BKN025
     FM201400 06012KT P6SM VCSH BKN020 OVC100=

USA.gov is the U.S. government's official web portal to all federal, state and local government web resources and services.